Time;durP1;ratioP1;P1;durP2;ratioP2;P2;SDS_P1;SDS_P2;PMS_P1;PMS_P2;Temp;Humidity;BMP_temperature;BMP_pressure;BME280_temperature;BME280_humidity;BME280_pressure;Samples;Min_cycle;Max_cycle;Signal;HPM_P1;HPM_P2
2023/03/23 00:01:21;;;;;;;33.80;22.50;;;;;;;6.97;67.50;99357.80;107613;1252;68691;-39
2023/03/23 00:03:51;;;;;;;33.90;22.70;;;;;;;6.98;67.62;99351.07;107568;1251;72604;-39
2023/03/23 00:06:19;;;;;;;33.50;21.90;;;;;;;6.98;67.78;99352.86;107586;1252;60458;-39
2023/03/23 00:08:52;;;;;;;29.00;19.70;;;;;;;7.01;68.07;99356.70;107692;1252;60323;-39
2023/03/23 00:11:21;;;;;;;29.80;20.60;;;;;;;7.11;68.03;99355.44;107645;1255;75889;-39
2023/03/23 00:13:52;;;;;;;30.80;21.00;;;;;;;7.17;68.11;99357.63;107707;1252;69411;-38
2023/03/23 00:16:28;;;;;;;30.60;20.80;;;;;;;7.21;68.36;99358.67;107700;1251;73440;-39
2023/03/23 00:19:06;;;;;;;30.60;21.20;;;;;;;7.25;68.62;99356.05;107712;1251;61338;-39
2023/03/23 00:21:38;;;;;;;33.40;22.10;;;;;;;7.31;68.37;99356.77;107707;1251;61469;-39
2023/03/23 00:24:15;;;;;;;31.90;21.80;;;;;;;7.33;67.91;99358.84;107735;1251;74611;-39
2023/03/23 00:26:47;;;;;;;29.40;20.70;;;;;;;7.32;68.07;99355.10;107711;1251;69661;-39
2023/03/23 00:29:17;;;;;;;30.60;20.80;;;;;;;7.30;67.46;99351.26;107743;1251;72416;-39
2023/03/23 00:31:47;;;;;;;33.30;20.30;;;;;;;7.28;67.17;99349.73;107765;1251;59691;-39
2023/03/23 00:34:21;;;;;;;34.20;21.20;;;;;;;7.24;66.79;99349.77;107721;1251;61542;-39
2023/03/23 00:36:56;;;;;;;29.10;19.40;;;;;;;7.18;66.77;99352.29;107735;1251;74878;-39
2023/03/23 00:39:25;;;;;;;28.00;19.10;;;;;;;7.23;66.32;99349.27;107778;1251;68665;-39
2023/03/23 00:42:00;;;;;;;30.90;19.50;;;;;;;7.27;65.91;99347.85;107711;1251;73902;-39
2023/03/23 00:44:30;;;;;;;31.90;20.30;;;;;;;7.22;65.57;99340.05;107777;1251;60327;-39
2023/03/23 00:47:01;;;;;;;35.30;21.90;;;;;;;7.24;65.29;99348.36;107702;1251;61504;-39
2023/03/23 00:49:34;;;;;;;30.00;21.20;;;;;;;7.23;65.36;99346.48;107716;1251;75070;-39
2023/03/23 00:52:03;;;;;;;29.00;21.90;;;;;;;7.21;65.03;99340.57;107696;1251;69614;-39
2023/03/23 00:54:31;;;;;;;29.80;21.10;;;;;;;7.13;65.07;99333.44;107710;1251;73892;-39
2023/03/23 00:56:58;;;;;;;33.50;23.30;;;;;;;7.12;65.26;99333.50;107677;1251;61561;-39
2023/03/23 00:59:25;;;;;;;36.80;23.70;;;;;;;7.08;65.30;99335.08;107719;1256;61176;-39
2023/03/23 01:01:53;;;;;;;30.50;21.80;;;;;;;7.03;65.46;99335.46;107679;1251;75026;-39
2023/03/23 01:04:21;;;;;;;30.10;21.60;;;;;;;7.00;65.53;99335.20;107696;1251;69577;-39
2023/03/23 01:06:50;;;;;;;30.10;21.40;;;;;;;6.95;65.70;99330.66;107720;1251;73456;-39
2023/03/23 01:09:20;;;;;;;28.80;21.40;;;;;;;6.93;65.72;99333.35;102474;1251;1003848;-39
2023/03/23 01:11:50;;;;;;;31.50;21.70;;;;;;;6.86;66.00;99321.11;107606;1251;60300;-39
2023/03/23 01:14:18;;;;;;;34.60;22.20;;;;;;;6.93;66.26;99326.59;107582;1254;74545;-39
2023/03/23 01:16:46;;;;;;;32.30;21.50;;;;;;;7.00;66.81;99327.48;107592;1251;68753;-39
2023/03/23 01:19:15;;;;;;;31.80;23.30;;;;;;;7.03;67.26;99322.05;107678;1252;74195;-39
2023/03/23 01:21:46;;;;;;;34.60;23.30;;;;;;;7.06;67.55;99323.82;107661;1253;61567;-39
2023/03/23 01:24:14;;;;;;;34.20;23.60;;;;;;;7.09;67.45;99321.79;107640;1251;61228;-39
2023/03/23 01:26:42;;;;;;;33.00;23.00;;;;;;;7.12;67.15;99323.59;107634;1256;74992;-39
2023/03/23 01:29:10;;;;;;;33.20;22.00;;;;;;;7.15;67.08;99322.51;107675;1253;69972;-39
2023/03/23 01:31:37;;;;;;;32.60;23.30;;;;;;;7.16;67.04;99319.85;107653;1253;73865;-39
2023/03/23 01:34:06;;;;;;;30.10;21.10;;;;;;;7.16;67.12;99324.77;107598;1251;60578;-39
2023/03/23 01:36:33;;;;;;;28.60;20.20;;;;;;;7.14;67.03;99324.58;107693;1251;61388;-39
2023/03/23 01:39:03;;;;;;;29.40;21.30;;;;;;;7.13;67.01;99321.20;107658;1251;74729;-39
2023/03/23 01:41:32;;;;;;;32.40;21.40;;;;;;;7.18;67.23;99317.05;107748;1251;70010;-39
2023/03/23 01:44:27;;;;;;;30.00;21.50;;;;;;;7.25;67.38;99318.44;107684;1252;73052;-39
2023/03/23 01:47:02;;;;;;;33.20;22.20;;;;;;;7.32;67.96;99321.29;107661;1254;61601;-39
2023/03/23 01:49:36;;;;;;;30.10;21.60;;;;;;;7.37;68.16;99320.20;107685;1253;61466;-39
2023/03/23 01:52:07;;;;;;;32.60;22.30;;;;;;;7.45;68.05;99317.58;107729;1251;74976;-39
2023/03/23 01:54:44;;;;;;;31.00;21.10;;;;;;;7.52;67.71;99321.71;107705;1253;69899;-39
2023/03/23 01:57:15;;;;;;;34.40;23.70;;;;;;;7.54;67.52;99325.10;107694;1255;73668;-39
2023/03/23 01:59:44;;;;;;;31.70;22.50;;;;;;;7.56;67.61;99325.45;107675;1252;61503;-39
2023/03/23 02:02:26;;;;;;;32.00;22.70;;;;;;;7.56;67.76;99323.39;107650;1252;61684;-39
2023/03/23 02:04:57;;;;;;;31.50;22.20;;;;;;;7.55;68.01;99317.03;107688;1252;74930;-39
2023/03/23 02:07:27;;;;;;;31.70;21.70;;;;;;;7.62;67.81;99313.69;107719;1252;69906;-39
2023/03/23 02:09:57;;;;;;;32.20;22.90;;;;;;;7.73;67.69;99312.63;107495;1252;73696;-39
2023/03/23 02:12:25;;;;;;;35.10;24.10;;;;;;;7.78;67.62;99312.02;107640;1253;61740;-39
2023/03/23 02:14:55;;;;;;;32.30;24.00;;;;;;;7.79;67.72;99310.35;107685;1253;61519;-39
2023/03/23 02:17:23;;;;;;;32.10;23.30;;;;;;;7.84;67.56;99305.55;107680;1252;75016;-39
2023/03/23 02:19:50;;;;;;;33.00;23.90;;;;;;;7.88;67.40;99305.59;107626;1253;68835;-39
2023/03/23 02:22:45;;;;;;;37.00;24.80;;;;;;;7.90;67.44;99306.02;107662;1255;73415;-39
2023/03/23 02:25:41;;;;;;;38.90;25.40;;;;;;;7.86;67.49;99305.47;107625;1253;60296;-39
2023/03/23 02:28:13;;;;;;;37.50;25.20;;;;;;;7.76;67.68;99308.27;107642;1252;61535;-38
2023/03/23 02:30:40;;;;;;;;;;;;;;;7.69;67.90;99307.98;107414;1252;203446;-39
2023/03/23 02:34:13;;;;;;;35.60;23.90;;;;;;;7.72;68.07;99308.30;104368;1290;600251;-38
2023/03/23 02:36:46;;;;;;;37.70;25.20;;;;;;;7.77;68.13;99310.92;106721;1264;61601;-38
2023/03/23 02:39:32;;;;;;;36.40;24.30;;;;;;;7.80;68.07;99306.61;106679;1264;61391;-38
2023/03/23 02:42:09;;;;;;;38.10;26.00;;;;;;;7.87;67.84;99304.16;106665;1264;73331;-39
2023/03/23 02:44:39;;;;;;;37.60;26.10;;;;;;;7.87;67.76;99302.40;106646;1269;68918;-38
2023/03/23 02:47:09;;;;;;;37.00;26.10;;;;;;;7.89;67.61;99302.98;106500;1267;206965;-38
2023/03/23 02:49:38;;;;;;;38.70;26.70;;;;;;;7.90;67.62;99307.05;106872;1264;61651;-38
2023/03/23 02:52:08;;;;;;;36.80;26.30;;;;;;;7.93;67.54;99303.34;106783;1262;61517;-37
2023/03/23 02:54:36;;;;;;;37.30;25.70;;;;;;;7.88;67.26;99295.86;106856;1264;73481;-40
2023/03/23 02:57:04;;;;;;;34.70;24.70;;;;;;;7.95;67.26;99305.80;106839;1264;69736;-38
2023/03/23 02:59:33;;;;;;;38.70;25.60;;;;;;;8.04;67.15;99308.28;106729;1264;73844;-38
2023/03/23 03:02:12;;;;;;;36.10;25.50;;;;;;;8.10;67.12;99309.47;106858;1266;61243;-39
2023/03/23 03:04:42;;;;;;;38.30;27.00;;;;;;;8.17;66.93;99305.48;106924;1263;61513;-38
2023/03/23 03:07:35;;;;;;;38.60;28.10;;;;;;;8.21;66.58;99302.88;106774;1264;74204;-38
2023/03/23 03:10:30;;;;;;;41.30;27.30;;;;;;;8.22;66.36;99305.61;106880;1264;69569;-38
2023/03/23 03:13:23;;;;;;;42.00;28.50;;;;;;;8.16;66.32;99300.84;106747;1264;73814;-38
2023/03/23 03:15:54;;;;;;;41.00;27.50;;;;;;;8.10;66.40;99298.80;106999;1265;61294;-38
2023/03/23 03:18:26;;;;;;;36.60;26.80;;;;;;;8.07;66.60;99300.29;106997;1264;61158;-38
2023/03/23 03:20:56;;;;;;;37.20;25.80;;;;;;;8.03;66.66;99299.77;107010;1266;74218;-38
2023/03/23 03:23:24;;;;;;;37.00;24.80;;;;;;;8.00;66.60;99301.61;107002;1264;69734;-38
2023/03/23 03:25:54;;;;;;;35.10;24.60;;;;;;;8.05;66.75;99305.37;106828;1263;73804;-39
2023/03/23 03:28:28;;;;;;;40.20;25.10;;;;;;;8.12;66.64;99303.25;106996;1264;60485;-38
2023/03/23 03:30:57;;;;;;;38.60;25.60;;;;;;;8.16;66.73;99303.83;107010;1264;61279;-39
2023/03/23 03:33:27;;;;;;;35.00;25.10;;;;;;;8.18;66.55;99298.34;106855;1264;73461;-40
2023/03/23 03:35:56;;;;;;;37.30;25.40;;;;;;;8.19;66.30;99299.14;106913;1266;69412;-40
2023/03/23 03:38:26;;;;;;;36.60;24.30;;;;;;;8.18;66.40;99297.94;106913;1263;73916;-39
2023/03/23 03:40:55;;;;;;;37.50;25.60;;;;;;;8.21;66.29;99295.95;106900;1264;61316;-40
2023/03/23 03:43:24;;;;;;;34.40;25.40;;;;;;;8.24;66.13;99298.19;107274;1263;61593;-40
2023/03/23 03:45:51;;;;;;;35.60;25.70;;;;;;;8.23;65.98;99299.15;107275;1260;74394;-40
2023/03/23 03:48:18;;;;;;;35.60;23.90;;;;;;;8.19;66.05;99301.69;107160;1260;69943;-39
2023/03/23 03:50:51;;;;;;;33.90;24.20;;;;;;;8.17;66.17;99300.24;107312;1260;72663;-40
2023/03/23 03:53:20;;;;;;;33.00;22.10;;;;;;;8.16;66.08;99298.05;107312;1260;61995;-40
2023/03/23 03:55:49;;;;;;;34.60;21.50;;;;;;;8.21;66.06;99296.86;107117;1257;61500;-39
2023/03/23 03:58:17;;;;;;;30.40;22.00;;;;;;;8.28;65.95;99301.94;107346;1257;74198;-39
2023/03/23 04:01:07;;;;;;;;;;;;;;;8.33;65.91;99305.84;107130;1257;69879;-39
2023/03/23 04:03:38;;;;;;;32.60;22.50;;;;;;;8.28;66.01;99303.33;107258;1262;73617;-39
2023/03/23 04:06:12;;;;;;;32.30;22.20;;;;;;;8.26;66.02;99303.73;107321;1262;61314;-39
2023/03/23 04:08:41;;;;;;;34.50;22.80;;;;;;;8.29;65.94;99307.75;107259;1263;61520;-39
2023/03/23 04:11:09;;;;;;;33.00;22.80;;;;;;;8.30;65.97;99305.91;107313;1262;73899;-40
2023/03/23 04:13:39;;;;;;;33.10;22.60;;;;;;;8.33;65.90;99306.02;107318;1258;68553;-39
2023/03/23 04:16:22;;;;;;;32.70;22.30;;;;;;;8.37;65.81;99305.50;107344;1262;72747;-39
2023/03/23 04:18:50;;;;;;;30.30;22.00;;;;;;;8.37;65.75;99308.82;107277;1261;60714;-39
2023/03/23 04:21:18;;;;;;;32.30;22.50;;;;;;;8.37;65.80;99309.75;107300;1258;60587;-39
2023/03/23 04:23:48;;;;;;;25.50;17.20;;;;;;;8.36;65.86;99308.80;107297;1259;73009;-39
2023/03/23 04:26:17;;;;;;;28.30;19.20;;;;;;;8.39;65.95;99301.38;107346;1261;69569;-39
2023/03/23 04:28:50;;;;;;;29.90;20.00;;;;;;;8.45;65.73;99304.63;107344;1257;71789;-39
2023/03/23 04:31:52;;;;;;;30.20;20.60;;;;;;;8.53;65.52;99304.92;107279;1258;61341;-39
2023/03/23 04:34:33;;;;;;;31.10;21.70;;;;;;;8.53;65.51;99305.77;107320;1260;60147;-40
2023/03/23 04:37:01;;;;;;;26.60;17.90;;;;;;;8.55;65.47;99306.91;107368;1259;73879;-39
2023/03/23 04:39:33;;;;;;;29.50;21.10;;;;;;;8.56;65.35;99308.48;107312;1260;68981;-38
2023/03/23 04:42:01;;;;;;;31.00;21.50;;;;;;;8.57;65.38;99309.20;107350;1259;73454;-38
2023/03/23 04:44:56;;;;;;;29.90;20.40;;;;;;;8.60;65.47;99310.43;107324;1257;61550;-39
2023/03/23 04:47:40;;;;;;;29.10;21.40;;;;;;;8.60;65.35;99310.45;107310;1257;61858;-38
2023/03/23 04:50:13;;;;;;;31.40;21.80;;;;;;;8.59;65.32;99307.86;107354;1259;73954;-39
2023/03/23 04:52:44;;;;;;;28.70;20.60;;;;;;;8.55;65.33;99311.78;107328;1257;69739;-39
2023/03/23 04:55:15;;;;;;;29.90;20.60;;;;;;;8.51;65.55;99311.61;107259;1263;73829;-39
2023/03/23 04:57:45;;;;;;;29.70;19.40;;;;;;;8.54;65.58;99312.67;107208;1258;63349;-39
2023/03/23 05:00:49;;;;;;;25.00;18.60;;;;;;;8.59;65.58;99305.80;107095;1258;61672;-39
2023/03/23 05:03:17;;;;;;;30.70;20.40;;;;;;;8.61;65.72;99306.61;107242;1257;72974;-39
2023/03/23 05:05:51;;;;;;;29.80;20.50;;;;;;;8.61;65.58;99304.23;107221;1258;70056;-39
2023/03/23 05:08:24;;;;;;;29.80;21.20;;;;;;;8.70;65.50;99314.31;107352;1259;73686;-39
2023/03/23 05:10:53;;;;;;;27.50;20.10;;;;;;;8.70;65.27;99318.58;107255;1258;61264;-39
2023/03/23 05:13:22;;;;;;;29.40;20.10;;;;;;;8.70;65.40;99322.19;107326;1258;61172;-39
2023/03/23 05:15:51;;;;;;;26.90;19.90;;;;;;;8.64;65.42;99319.96;107298;1257;73257;-39
2023/03/23 05:18:20;;;;;;;29.90;20.60;;;;;;;8.68;65.63;99321.77;107317;1260;69651;-39
2023/03/23 05:21:00;;;;;;;29.10;20.60;;;;;;;8.69;65.56;99325.66;107296;1257;73531;-39
2023/03/23 05:23:30;;;;;;;30.10;19.80;;;;;;;8.71;65.62;99325.02;107265;1257;59607;-39
2023/03/23 05:26:03;;;;;;;27.90;18.60;;;;;;;8.78;65.66;99326.48;107257;1256;61306;-39
2023/03/23 05:28:31;;;;;;;27.30;18.00;;;;;;;8.84;65.63;99330.81;107350;1260;74193;-39
2023/03/23 05:31:13;;;;;;;25.50;19.30;;;;;;;8.85;65.58;99326.38;107315;1260;69769;-39
2023/03/23 05:33:42;;;;;;;25.20;15.10;;;;;;;8.84;65.61;99327.34;107282;1258;73261;-39
2023/03/23 05:36:17;;;;;;;27.80;19.30;;;;;;;8.86;65.72;99324.68;107322;1257;60277;-39
2023/03/23 05:39:11;;;;;;;25.60;17.90;;;;;;;8.88;65.81;99326.14;107361;1255;61428;-39
2023/03/23 05:41:58;;;;;;;27.70;19.70;;;;;;;8.90;65.82;99325.73;107219;1257;74149;-39
2023/03/23 05:44:29;;;;;;;19.80;13.80;;;;;;;8.90;65.86;99325.16;107205;1257;69667;-40
2023/03/23 05:47:00;;;;;;;27.60;20.10;;;;;;;8.89;65.90;99324.53;107342;1260;73883;-40
2023/03/23 05:49:28;;;;;;;28.40;19.10;;;;;;;8.91;66.17;99326.41;107334;1257;61364;-40
2023/03/23 05:51:59;;;;;;;24.00;17.00;;;;;;;9.00;65.98;99327.81;107266;1257;61892;-40
2023/03/23 05:54:28;;;;;;;25.30;17.60;;;;;;;9.12;65.75;99328.41;107411;1255;74459;-40
2023/03/23 05:56:56;;;;;;;24.80;17.60;;;;;;;9.20;65.62;99332.30;107369;1259;69639;-40
2023/03/23 05:59:38;;;;;;;25.20;17.20;;;;;;;9.26;65.35;99331.36;107353;1258;73575;-40
2023/03/23 06:02:06;;;;;;;24.20;17.40;;;;;;;9.30;65.51;99331.30;107357;1257;61332;-40
2023/03/23 06:04:37;;;;;;;26.50;18.30;;;;;;;9.35;65.30;99334.05;107373;1258;61334;-40
2023/03/23 06:07:14;;;;;;;23.40;17.40;;;;;;;9.37;65.31;99333.95;107228;1263;72771;-38
2023/03/23 06:09:46;;;;;;;24.90;18.30;;;;;;;9.39;65.34;99333.52;107267;1258;69919;-38
2023/03/23 06:12:29;;;;;;;22.60;17.70;;;;;;;9.42;65.24;99336.45;107356;1257;72699;-39
2023/03/23 06:15:21;;;;;;;25.30;18.30;;;;;;;9.45;65.33;99336.21;107266;1257;61259;-39
2023/03/23 06:18:13;;;;;;;23.30;16.20;;;;;;;9.41;65.16;99330.77;107232;1257;61222;-39
2023/03/23 06:20:47;;;;;;;21.70;16.00;;;;;;;9.55;65.08;99341.08;107397;1257;74251;-39
2023/03/23 06:23:35;;;;;;;23.20;16.90;;;;;;;9.62;64.91;99337.23;107214;1260;69905;-39
2023/03/23 06:26:05;;;;;;;24.00;17.30;;;;;;;9.69;65.09;99336.68;107295;1257;73707;-39
2023/03/23 06:28:33;;;;;;;24.40;16.50;;;;;;;9.79;64.51;99343.94;107293;1258;61172;-40
2023/03/23 06:31:06;;;;;;;26.10;16.80;;;;;;;9.83;64.39;99345.13;107224;1257;61309;-40
2023/03/23 06:33:35;;;;;;;25.20;17.70;;;;;;;9.88;64.33;99346.37;107281;1256;74054;-39
2023/03/23 06:36:22;;;;;;;21.60;16.10;;;;;;;9.94;63.90;99350.59;107316;1256;69977;-39
2023/03/23 06:39:10;;;;;;;21.60;15.90;;;;;;;9.97;63.76;99348.26;107279;1257;73853;-39
2023/03/23 06:41:47;;;;;;;23.30;16.40;;;;;;;10.00;63.95;99354.30;107235;1260;61345;-39
2023/03/23 06:44:15;;;;;;;23.50;16.50;;;;;;;10.08;63.89;99350.49;107386;1257;61472;-39
2023/03/23 06:46:43;;;;;;;20.90;15.90;;;;;;;10.16;63.81;99351.30;107248;1255;73252;-40
2023/03/23 06:49:25;;;;;;;21.40;15.60;;;;;;;10.26;63.41;99355.07;107331;1259;69761;-39
2023/03/23 06:52:00;;;;;;;21.30;15.80;;;;;;;10.34;63.41;99346.25;107372;1260;73553;-39
2023/03/23 06:54:28;;;;;;;22.20;16.30;;;;;;;10.42;63.47;99345.95;107367;1257;60984;-39
2023/03/23 06:56:57;;;;;;;22.30;16.30;;;;;;;10.49;63.07;99343.75;107344;1260;61533;-39
2023/03/23 06:59:24;;;;;;;21.90;16.30;;;;;;;10.56;63.02;99344.51;107255;1258;75089;-39
2023/03/23 07:01:52;;;;;;;22.30;16.30;;;;;;;10.65;62.91;99342.34;107282;1258;69292;-39
2023/03/23 07:04:19;;;;;;;26.10;17.50;;;;;;;10.73;62.72;99343.80;107227;1257;73930;-39
2023/03/23 07:06:53;;;;;;;23.20;18.00;;;;;;;10.79;62.23;99342.36;107262;1257;61133;-39
2023/03/23 07:09:21;;;;;;;23.00;17.20;;;;;;;10.82;62.24;99343.65;107218;1263;61418;-39
2023/03/23 07:11:51;;;;;;;23.40;18.00;;;;;;;10.86;62.57;99342.87;107245;1257;74222;-39
2023/03/23 07:14:31;;;;;;;25.20;18.70;;;;;;;10.92;62.64;99340.95;107299;1260;69597;-39
2023/03/23 07:17:03;;;;;;;25.00;16.80;;;;;;;10.95;62.67;99342.86;107328;1257;73681;-39
2023/03/23 07:19:33;;;;;;;25.40;18.40;;;;;;;11.09;62.53;99342.25;107320;1256;60095;-39
2023/03/23 07:22:01;;;;;;;28.30;19.80;;;;;;;11.20;62.13;99340.33;107340;1256;61386;-40
2023/03/23 07:24:29;;;;;;;24.60;18.00;;;;;;;11.30;62.23;99340.57;107240;1256;75129;-39
2023/03/23 07:27:23;;;;;;;24.50;18.20;;;;;;;11.40;61.86;99339.95;107132;1260;69606;-40
2023/03/23 07:29:53;;;;;;;27.10;19.40;;;;;;;11.45;61.83;99338.95;107338;1257;74022;-40
2023/03/23 07:32:24;;;;;;;30.10;23.30;;;;;;;11.50;61.83;99341.03;107349;1259;61251;-40
2023/03/23 07:34:52;;;;;;;27.30;21.00;;;;;;;11.58;61.83;99340.45;107342;1257;61349;-40
2023/03/23 07:37:25;;;;;;;28.40;22.00;;;;;;;11.66;61.73;99336.61;107310;1258;74940;-40
2023/03/23 07:39:53;;;;;;;36.70;26.90;;;;;;;11.75;61.50;99338.46;107312;1257;69890;-39
2023/03/23 07:42:20;;;;;;;64.80;43.60;;;;;;;11.83;60.91;99336.95;107278;1257;72918;-39
2023/03/23 07:44:50;;;;;;;31.50;24.30;;;;;;;11.90;60.48;99333.32;107251;1260;61222;-39
2023/03/23 07:47:18;;;;;;;35.00;27.40;;;;;;;11.98;60.38;99333.88;107220;1257;61302;-39
2023/03/23 07:49:47;;;;;;;36.10;25.50;;;;;;;11.99;60.43;99326.29;107243;1256;74743;-38
2023/03/23 07:52:23;;;;;;;50.40;34.60;;;;;;;12.12;60.49;99325.27;107265;1256;69956;-39
2023/03/23 07:54:52;;;;;;;41.10;30.80;;;;;;;12.13;60.33;99311.70;107355;1257;73639;-39
2023/03/23 07:57:27;;;;;;;41.70;31.50;;;;;;;12.25;59.69;99319.75;107268;1257;61486;-38
2023/03/23 08:00:09;;;;;;;33.40;25.20;;;;;;;12.30;59.56;99317.95;107274;1257;61279;-38
2023/03/23 08:02:43;;;;;;;49.90;36.20;;;;;;;12.35;59.27;99323.75;107333;1257;72913;-39
2023/03/23 08:05:34;;;;;;;42.10;31.30;;;;;;;12.42;59.66;99325.00;107027;1257;69783;-39
2023/03/23 08:08:08;;;;;;;27.80;22.50;;;;;;;12.47;59.89;99325.21;107337;1256;73539;-38
2023/03/23 08:10:54;;;;;;;30.00;22.80;;;;;;;12.55;59.44;99320.26;107311;1258;61206;-39
2023/03/23 08:13:45;;;;;;;30.40;23.60;;;;;;;12.59;59.21;99317.11;107382;1257;61599;-39
2023/03/23 08:16:48;;;;;;;31.10;23.00;;;;;;;12.64;59.52;99314.19;106832;1263;74869;-39
2023/03/23 08:19:27;;;;;;;28.40;21.90;;;;;;;12.71;59.79;99313.95;107267;1257;69586;-39
2023/03/23 08:22:14;;;;;;;28.00;20.20;;;;;;;12.83;59.69;99317.48;107284;1257;73955;-39
2023/03/23 08:25:14;;;;;;;27.10;20.30;;;;;;;12.97;59.27;99315.73;107012;1266;61493;-39
2023/03/23 08:28:01;;;;;;;24.10;17.80;;;;;;;13.08;58.83;99314.60;107277;1256;61333;-39
2023/03/23 08:30:51;;;;;;;23.30;18.30;;;;;;;13.21;58.20;99307.02;107019;1257;74816;-39
2023/03/23 08:33:41;;;;;;;;;;;;;;;13.34;58.29;99304.15;107322;1257;69941;-38
2023/03/23 08:36:20;;;;;;;21.00;15.70;;;;;;;13.41;57.61;99308.80;107294;1257;74147;-39
2023/03/23 08:39:17;;;;;;;19.70;15.60;;;;;;;13.57;57.44;99305.08;107422;1257;61550;-39
2023/03/23 08:42:09;;;;;;;22.30;16.60;;;;;;;13.76;57.66;99305.02;107247;1257;61565;-39
2023/03/23 08:45:11;;;;;;;23.40;16.90;;;;;;;13.98;56.58;99300.92;107084;1260;75068;-39
2023/03/23 08:47:55;;;;;;;23.80;17.00;;;;;;;14.15;55.87;99309.09;107425;1257;69482;-39
2023/03/23 08:50:33;;;;;;;22.30;15.80;;;;;;;14.26;54.78;99308.66;107437;1260;73924;-39
2023/03/23 08:53:03;;;;;;;20.20;15.20;;;;;;;14.28;54.53;99307.34;107458;1257;61397;-38
2023/03/23 08:55:52;;;;;;;19.70;15.40;;;;;;;14.27;54.84;99307.34;107354;1255;61692;-39
2023/03/23 08:58:23;;;;;;;23.20;17.80;;;;;;;14.25;55.28;99302.35;107382;1257;75270;-39
2023/03/23 09:01:09;;;;;;;28.60;22.10;;;;;;;14.25;54.92;99299.38;107354;1256;69763;-38
2023/03/23 09:03:46;;;;;;;25.60;17.90;;;;;;;14.24;55.25;99300.86;107439;1257;73539;-39
2023/03/23 09:06:26;;;;;;;25.30;19.60;;;;;;;14.25;55.41;99292.77;107387;1257;60323;-38
2023/03/23 09:08:55;;;;;;;40.00;35.60;;;;;;;14.28;55.80;99289.73;107411;1255;60395;-39
2023/03/23 09:11:23;;;;;;;35.20;30.20;;;;;;;14.33;55.85;99290.36;107190;1256;74705;-39
2023/03/23 09:13:50;;;;;;;32.30;26.90;;;;;;;14.39;55.57;99287.14;107350;1258;70047;-39
2023/03/23 09:16:18;;;;;;;23.90;20.80;;;;;;;14.45;55.25;99279.44;107437;1257;73854;-39
2023/03/23 09:18:46;;;;;;;22.80;18.80;;;;;;;14.51;55.04;99281.31;107429;1256;60562;-39
2023/03/23 09:21:13;;;;;;;18.20;15.90;;;;;;;14.56;55.16;99276.88;107446;1255;60631;-39
2023/03/23 09:23:45;;;;;;;23.50;20.70;;;;;;;14.59;55.24;99270.66;107424;1257;74874;-39
2023/03/23 09:26:12;;;;;;;22.30;18.80;;;;;;;14.69;54.78;99277.06;107453;1256;68625;-39
2023/03/23 09:28:39;;;;;;;33.10;27.40;;;;;;;14.74;54.40;99280.02;107491;1254;73864;-39
2023/03/23 09:31:07;;;;;;;53.00;43.70;;;;;;;14.77;53.69;99278.63;107425;1257;61590;-39
2023/03/23 09:33:36;;;;;;;31.50;25.90;;;;;;;14.78;53.60;99279.33;107450;1257;61302;-39
2023/03/23 09:36:04;;;;;;;41.30;34.10;;;;;;;14.80;54.05;99277.92;107489;1256;75010;-39
2023/03/23 09:38:33;;;;;;;33.90;28.40;;;;;;;14.83;54.56;99276.52;107490;1257;69180;-39
2023/03/23 09:41:58;;;;;;;47.00;39.50;;;;;;;14.86;54.31;99277.14;107376;1257;73955;-39
2023/03/23 09:44:44;;;;;;;31.80;27.80;;;;;;;14.89;53.69;99278.39;106712;1263;61320;-39
2023/03/23 09:47:26;;;;;;;31.90;26.70;;;;;;;14.86;54.31;99271.30;106714;1264;61343;-39
2023/03/23 09:49:57;;;;;;;23.40;20.20;;;;;;;14.92;53.78;99267.40;107195;1257;74983;-39
2023/03/23 09:52:48;;;;;;;23.60;19.00;;;;;;;14.95;53.65;99264.19;107231;1256;69854;-40
2023/03/23 09:55:16;;;;;;;23.50;20.00;;;;;;;15.00;53.49;99262.33;107419;1257;73860;-39
2023/03/23 09:57:56;;;;;;;24.90;20.70;;;;;;;15.04;52.51;99261.77;107443;1255;61263;-39
2023/03/23 10:00:37;;;;;;;24.90;19.70;;;;;;;15.10;52.06;99260.36;107472;1257;60287;-39
2023/03/23 10:03:06;;;;;;;21.30;17.70;;;;;;;15.19;52.19;99253.10;107457;1255;74965;-39
2023/03/23 10:05:35;;;;;;;28.00;22.10;;;;;;;15.28;51.50;99245.59;107460;1257;69364;-40
2023/03/23 10:08:12;;;;;;;23.20;18.00;;;;;;;15.37;51.85;99245.41;107451;1258;73887;-39
2023/03/23 10:11:06;;;;;;;19.50;15.90;;;;;;;15.52;51.06;99240.71;107437;1259;61202;-39
2023/03/23 10:13:46;;;;;;;20.60;17.60;;;;;;;15.71;50.36;99236.84;107426;1258;60487;-39
2023/03/23 10:16:25;;;;;;;22.00;17.00;;;;;;;15.92;49.69;99237.99;107325;1256;74700;-39
2023/03/23 10:18:58;;;;;;;20.50;15.80;;;;;;;16.20;49.37;99232.77;107335;1260;68974;-39
2023/03/23 10:21:26;;;;;;;20.50;16.20;;;;;;;16.51;48.88;99230.46;107349;1256;72485;-40
2023/03/23 10:23:58;;;;;;;19.30;16.00;;;;;;;16.79;46.73;99216.11;107188;1257;61227;-39
2023/03/23 10:26:38;;;;;;;23.60;18.20;;;;;;;17.03;47.29;99222.63;107380;1257;61209;-39
2023/03/23 10:29:10;;;;;;;16.90;14.50;;;;;;;17.20;45.96;99217.36;107374;1256;74809;-39
2023/03/23 10:31:51;;;;;;;21.10;15.50;;;;;;;17.28;44.33;99212.19;107357;1258;69966;-39
2023/03/23 10:34:29;;;;;;;18.50;14.90;;;;;;;17.32;44.50;99212.23;107356;1257;73901;-39
2023/03/23 10:37:16;;;;;;;18.60;15.30;;;;;;;17.32;44.27;99214.03;107297;1257;61348;-39
2023/03/23 10:39:58;;;;;;;20.20;16.40;;;;;;;17.27;44.00;99208.07;107296;1257;61354;-38
2023/03/23 10:42:31;;;;;;;18.30;15.40;;;;;;;17.13;44.14;99210.09;107130;1257;75016;-38
2023/03/23 10:45:01;;;;;;;18.40;14.90;;;;;;;16.98;44.27;99201.78;107286;1257;69991;-39
2023/03/23 10:47:28;;;;;;;19.40;15.30;;;;;;;16.81;44.45;99191.77;107394;1256;72839;-39
2023/03/23 10:49:59;;;;;;;21.50;17.40;;;;;;;16.70;44.68;99193.50;107330;1257;61968;-39
2023/03/23 10:52:32;;;;;;;19.60;16.10;;;;;;;16.59;45.01;99191.39;107327;1257;61836;-40
2023/03/23 10:55:04;;;;;;;19.40;15.80;;;;;;;16.51;45.59;99191.36;107277;1257;75071;-39
2023/03/23 10:57:34;;;;;;;17.40;14.50;;;;;;;16.44;46.08;99191.80;107308;1257;69698;-39
2023/03/23 11:00:08;;;;;;;59.20;44.50;;;;;;;16.38;45.68;99183.88;107243;1257;73554;-40
2023/03/23 11:02:44;;;;;;;25.80;22.00;;;;;;;16.33;45.58;99186.95;107414;1257;61594;-40
2023/03/23 11:05:20;;;;;;;36.10;30.00;;;;;;;16.30;46.19;99183.16;107417;1259;62006;-39
2023/03/23 11:07:57;;;;;;;33.00;27.40;;;;;;;16.31;45.64;99181.20;107417;1260;75098;-39
2023/03/23 11:10:25;;;;;;;19.00;15.90;;;;;;;16.34;46.10;99176.56;107461;1257;69358;-40
2023/03/23 11:12:57;;;;;;;24.00;20.50;;;;;;;16.36;46.31;99171.77;107474;1257;73591;-40
2023/03/23 11:15:27;;;;;;;16.90;13.90;;;;;;;16.40;46.30;99170.96;107177;1257;60350;-39
2023/03/23 11:18:00;;;;;;;20.80;16.20;;;;;;;16.40;45.99;99168.63;107404;1257;61549;-40
2023/03/23 11:20:29;;;;;;;16.90;14.60;;;;;;;16.39;45.97;99167.07;107425;1257;75070;-38
2023/03/23 11:22:56;;;;;;;15.40;12.70;;;;;;;16.38;45.92;99166.67;107504;1257;69613;-39
2023/03/23 11:25:26;;;;;;;15.60;13.90;;;;;;;16.39;45.85;99163.08;107337;1256;73755;-39
2023/03/23 11:27:53;;;;;;;16.90;14.50;;;;;;;16.40;45.87;99160.26;107074;1258;61481;-39
2023/03/23 11:30:27;;;;;;;17.10;14.00;;;;;;;16.41;45.63;99159.77;107410;1257;61246;-39
2023/03/23 11:32:55;;;;;;;18.40;14.80;;;;;;;16.42;45.60;99152.73;107484;1257;73944;-39
2023/03/23 11:35:25;;;;;;;16.80;13.80;;;;;;;16.44;45.59;99154.73;107465;1257;69923;-39
2023/03/23 11:37:56;;;;;;;16.30;13.10;;;;;;;16.48;44.90;99148.15;107469;1257;71753;-39
2023/03/23 11:40:27;;;;;;;16.20;13.40;;;;;;;16.51;44.76;99147.41;107436;1257;61232;-40
2023/03/23 11:42:59;;;;;;;18.40;14.60;;;;;;;16.55;44.71;99145.50;107490;1255;61508;-40
2023/03/23 11:45:37;;;;;;;18.30;14.80;;;;;;;16.60;44.26;99143.45;107438;1259;75049;-40
2023/03/23 11:48:24;;;;;;;18.20;14.70;;;;;;;16.65;44.30;99141.77;107473;1258;69656;-40